createdAt,value
2022-07-29T00:00:40.184Z,3.72
2022-07-29T00:03:07.856Z,3.90
2022-07-29T00:05:35.406Z,3.75
2022-07-29T00:08:02.910Z,3.55
2022-07-29T00:10:31.854Z,4.50
2022-07-29T00:12:59.949Z,3.88
2022-07-29T00:15:27.752Z,3.90
2022-07-29T00:17:55.365Z,4.40
2022-07-29T00:20:22.886Z,4.00
2022-07-29T00:22:50.406Z,4.03
2022-07-29T00:25:18.001Z,3.70
2022-07-29T00:27:47.154Z,3.85
2022-07-29T00:30:14.968Z,3.67
2022-07-29T00:32:42.686Z,3.67
2022-07-29T00:35:28.223Z,3.88
2022-07-29T00:37:55.759Z,4.13
2022-07-29T00:40:23.771Z,2.92
2022-07-29T00:42:53.806Z,3.72
2022-07-29T00:45:22.849Z,3.20
2022-07-29T00:47:50.676Z,3.47
2022-07-29T00:50:18.793Z,3.25
2022-07-29T00:52:46.613Z,3.40
2022-07-29T00:55:15.535Z,2.97
2022-07-29T00:57:44.266Z,3.50
2022-07-29T01:00:16.390Z,2.95
2022-07-29T01:02:43.870Z,3.22
2022-07-29T01:05:13.431Z,2.92
2022-07-29T01:07:41.357Z,2.88
2022-07-29T01:10:11.381Z,2.85
2022-07-29T01:12:40.156Z,2.90
2022-07-29T01:15:09.771Z,2.88
2022-07-29T01:17:52.446Z,2.78
2022-07-29T01:20:31.508Z,3.17
2022-07-29T01:23:23.047Z,2.92
2022-07-29T01:26:03.221Z,2.35
2022-07-29T01:28:42.810Z,3.05
2022-07-29T01:31:12.469Z,2.63
2022-07-29T01:33:56.459Z,2.45
2022-07-29T01:36:29.297Z,2.80
2022-07-29T01:39:03.426Z,2.55
2022-07-29T01:41:35.976Z,2.50
2022-07-29T01:44:14.753Z,2.25
2022-07-29T01:46:48.032Z,2.60
2022-07-29T01:49:18.469Z,2.38
2022-07-29T01:51:51.166Z,2.50
2022-07-29T01:54:24.366Z,2.90
2022-07-29T01:56:53.552Z,2.97
2022-07-29T01:59:24.227Z,2.70
2022-07-29T02:01:55.363Z,2.63
2022-07-29T02:04:29.537Z,2.78
2022-07-29T02:07:00.841Z,2.50
2022-07-29T02:09:30.551Z,2.20
2022-07-29T02:11:59.451Z,2.42
2022-07-29T02:14:30.503Z,2.60
2022-07-29T02:17:00.280Z,2.30
2022-07-29T02:19:29.647Z,2.35
2022-07-29T02:21:59.575Z,2.28
2022-07-29T02:24:28.260Z,2.47
2022-07-29T02:26:58.261Z,2.25
2022-07-29T02:29:29.233Z,2.28
2022-07-29T04:41:34.551Z,2.22
2022-07-29T04:44:06.899Z,2.25
2022-07-29T04:46:34.960Z,1.95
2022-07-29T04:49:02.776Z,2.40
2022-07-29T04:51:30.381Z,2.38
2022-07-29T05:04:40.159Z,2.42
2022-07-29T05:07:07.726Z,2.60
2022-07-29T05:09:35.234Z,3.00
2022-07-29T05:12:02.865Z,2.97
2022-07-29T05:14:30.370Z,3.05
2022-07-29T05:16:58.162Z,3.20
2022-07-29T05:19:25.775Z,4.28
2022-07-29T05:21:54.694Z,5.20
2022-07-29T05:24:22.209Z,4.65
2022-07-29T05:26:49.748Z,4.65
2022-07-29T05:29:44.171Z,5.68
2022-07-29T05:32:05.429Z,5.47
2022-07-29T05:34:33.293Z,4.57
2022-07-29T05:37:02.137Z,4.00
2022-07-29T05:39:47.611Z,4.50
2022-07-29T05:42:16.760Z,3.30
2022-07-29T05:44:44.259Z,3.83
2022-07-29T05:47:12.465Z,3.20
2022-07-29T05:49:40.077Z,3.22
2022-07-29T05:52:08.934Z,3.53
2022-07-29T05:54:36.521Z,3.38
2022-07-29T05:57:04.233Z,3.28
2022-07-29T05:59:31.740Z,3.00
2022-07-29T06:01:59.339Z,3.88
2022-07-29T06:04:26.897Z,4.05
2022-07-29T06:06:54.444Z,3.35
2022-07-29T06:09:23.995Z,3.50
2022-07-29T06:11:51.541Z,3.38
2022-07-29T06:14:19.493Z,3.97
2022-07-29T06:16:48.254Z,3.33
2022-07-29T06:19:15.805Z,3.22
2022-07-29T06:21:44.533Z,3.17
2022-07-29T06:24:13.456Z,3.13
2022-07-29T06:26:43.232Z,3.28
2022-07-29T06:29:12.323Z,3.58
2022-07-29T06:31:40.752Z,3.13
2022-07-29T06:34:08.634Z,3.45
2022-07-29T06:36:37.799Z,3.13
2022-07-29T06:39:07.284Z,3.10
2022-07-29T06:41:35.457Z,2.92
2022-07-29T06:44:05.515Z,2.75
2022-07-29T06:46:33.216Z,3.00
2022-07-29T06:49:02.407Z,3.05
2022-07-29T06:51:30.288Z,3.28
2022-07-29T06:54:02.601Z,2.80
2022-07-29T06:56:31.794Z,3.15
2022-07-29T06:58:59.374Z,3.50
2022-07-29T07:01:30.449Z,2.92
2022-07-29T07:03:58.110Z,3.25
2022-07-29T07:06:25.630Z,3.33
2022-07-29T07:08:53.153Z,3.53
2022-07-29T07:11:20.900Z,3.35
2022-07-29T07:13:48.386Z,3.30
2022-07-29T07:16:16.031Z,3.78
2022-07-29T07:18:46.050Z,3.15
2022-07-29T07:21:18.836Z,3.38
2022-07-29T07:23:47.071Z,3.75
2022-07-29T07:26:14.653Z,4.65
2022-07-29T07:28:42.176Z,4.75
2022-07-29T07:31:10.413Z,4.78
2022-07-29T07:33:38.012Z,4.88
2022-07-29T07:36:07.213Z,4.78
2022-07-29T07:38:35.573Z,4.85
2022-07-29T07:41:03.667Z,4.70
2022-07-29T07:43:31.261Z,5.30
2022-07-29T07:45:59.381Z,4.10
2022-07-29T07:48:27.053Z,3.70
2022-07-29T07:50:54.586Z,3.67
2022-07-29T07:53:24.482Z,3.50
2022-07-29T07:58:39.575Z,4.63
2022-07-29T08:01:07.281Z,3.88
2022-07-29T08:03:35.004Z,3.75
2022-07-29T08:06:02.577Z,3.30
2022-07-29T08:08:31.426Z,3.90
2022-07-29T08:11:00.639Z,3.50
2022-07-29T08:13:31.326Z,3.85
2022-07-29T08:16:00.700Z,3.70
2022-07-29T08:18:29.506Z,3.90
2022-07-29T08:20:57.927Z,3.92
2022-07-29T08:23:29.314Z,3.55
2022-07-29T08:26:01.882Z,3.78
2022-07-29T08:28:29.382Z,3.90
2022-07-29T08:30:56.908Z,2.88
2022-07-29T08:33:24.396Z,2.95
2022-07-29T08:35:51.929Z,3.00
2022-07-29T08:38:19.440Z,3.28
2022-07-29T08:40:47.585Z,3.33
2022-07-29T08:43:16.688Z,2.55
2022-07-29T08:45:47.616Z,2.15
2022-07-29T08:48:16.840Z,2.25
2022-07-29T08:50:46.521Z,1.80
2022-07-29T08:53:16.449Z,2.28
2022-07-29T08:55:44.988Z,2.47
2022-07-29T08:58:15.756Z,2.30
2022-07-29T09:00:47.642Z,2.60
2022-07-29T09:03:22.295Z,5.03
2022-07-29T09:05:50.608Z,3.85
2022-07-29T09:08:18.709Z,2.90
2022-07-29T09:10:46.634Z,2.20
2022-07-29T09:13:14.235Z,2.13
2022-07-29T09:15:41.763Z,2.35
2022-07-29T09:18:19.561Z,2.30
2022-07-29T09:21:16.231Z,2.65
2022-07-29T09:24:02.232Z,2.97
2022-07-29T09:26:30.882Z,2.90
2022-07-29T09:28:59.173Z,2.42
2022-07-29T09:31:35.086Z,2.85
2022-07-29T09:34:04.689Z,2.90
2022-07-29T09:36:32.409Z,2.67
2022-07-29T09:39:01.355Z,2.50
2022-07-29T09:41:29.081Z,2.90
2022-07-29T09:43:57.929Z,2.38
2022-07-29T09:46:26.079Z,2.58
2022-07-29T09:49:11.299Z,2.60
2022-07-29T09:51:39.375Z,3.00
2022-07-29T09:54:25.059Z,3.40
2022-07-29T09:56:52.943Z,2.88
2022-07-29T09:59:23.266Z,2.88
2022-07-29T10:01:51.370Z,2.42
2022-07-29T10:04:20.902Z,2.55
2022-07-29T10:07:04.242Z,2.90
2022-07-29T10:09:32.973Z,2.95
2022-07-29T10:12:09.992Z,2.70
2022-07-29T10:14:38.136Z,3.05
2022-07-29T10:17:07.133Z,2.80
2022-07-29T10:19:36.933Z,2.25
2022-07-29T10:22:06.555Z,2.92
2022-07-29T10:24:35.288Z,3.00
2022-07-29T10:27:05.116Z,2.20
2022-07-29T10:29:32.840Z,3.22
2022-07-29T10:32:15.941Z,3.05
2022-07-29T10:35:03.341Z,3.55
2022-07-29T10:37:39.605Z,2.90
2022-07-29T10:40:41.919Z,3.53
2022-07-29T10:43:22.512Z,2.90
2022-07-29T10:45:51.579Z,3.22
2022-07-29T10:48:20.295Z,2.88
2022-07-29T10:50:56.802Z,3.10
2022-07-29T10:53:24.869Z,3.00
2022-07-29T10:55:53.833Z,3.25
2022-07-29T10:58:23.463Z,4.57
2022-07-29T11:00:52.622Z,3.63
2022-07-29T11:03:50.397Z,3.22
2022-07-29T11:58:11.265Z,6.28
2022-07-29T12:00:40.939Z,3.15
2022-07-29T12:03:10.103Z,2.90
2022-07-29T12:05:48.267Z,2.97
2022-07-29T12:08:21.438Z,3.60
2022-07-29T13:26:26.401Z,1.50
2022-07-29T13:28:54.000Z,1.70
2022-07-29T13:31:21.576Z,1.75
2022-07-29T13:33:49.241Z,1.60
2022-07-29T13:36:16.818Z,1.83
2022-07-29T15:05:02.945Z,2.72
2022-07-29T15:07:30.693Z,2.70
2022-07-29T15:09:59.782Z,3.13
2022-07-29T15:12:27.503Z,3.20
2022-07-29T15:14:55.136Z,2.90
2022-07-29T15:17:22.656Z,2.97
2022-07-29T16:51:47.695Z,3.33
2022-07-29T16:54:15.387Z,3.63
2022-07-29T16:56:43.053Z,3.13
2022-07-29T16:59:10.571Z,3.05
2022-07-29T17:01:38.139Z,2.90
2022-07-29T18:04:03.465Z,2.88
2022-07-29T18:06:31.054Z,2.55
2022-07-29T18:08:58.569Z,3.40
2022-07-29T18:11:26.198Z,4.03
2022-07-29T18:13:53.704Z,3.97
2022-07-29T19:15:39.519Z,3.80
2022-07-29T19:18:07.177Z,3.67
2022-07-29T19:20:34.970Z,3.28
2022-07-29T19:23:02.496Z,3.10
2022-07-29T19:25:30.059Z,3.35
2022-07-29T19:27:57.676Z,3.13
2022-07-29T20:16:13.559Z,3.42
2022-07-29T20:18:41.114Z,2.88
2022-07-29T20:21:08.644Z,3.70
2022-07-29T20:23:37.345Z,3.25
2022-07-29T20:26:09.312Z,3.67
2022-07-29T20:39:26.656Z,2.85
2022-07-29T20:41:54.190Z,2.75
2022-07-29T20:44:23.588Z,2.70
2022-07-29T20:46:51.310Z,2.88
2022-07-29T20:49:18.919Z,3.05
2022-07-29T20:51:46.504Z,2.50
2022-07-29T20:54:14.429Z,2.40
2022-07-29T20:56:43.279Z,2.97
2022-07-29T20:59:11.256Z,2.45
2022-07-29T21:01:38.801Z,1.98
2022-07-29T21:04:06.387Z,2.45
2022-07-29T21:06:34.643Z,2.30
2022-07-29T21:09:02.164Z,2.25
2022-07-29T21:11:44.182Z,2.20
2022-07-29T21:14:21.475Z,2.67
2022-07-29T21:16:50.151Z,1.88
2022-07-29T21:19:17.684Z,2.08
2022-07-29T21:21:45.238Z,2.40
2022-07-29T21:24:12.736Z,2.30
2022-07-29T21:26:40.258Z,2.33
2022-07-29T21:29:06.885Z,2.58
2022-07-29T21:31:35.719Z,2.38
2022-07-29T21:34:03.254Z,1.92
2022-07-29T21:39:18.262Z,2.85
2022-07-29T21:41:45.794Z,3.05
2022-07-29T21:44:13.330Z,2.00
2022-07-29T21:46:42.184Z,2.33
2022-07-29T21:49:09.733Z,2.40
2022-07-29T21:51:37.367Z,2.00
2022-07-29T21:54:05.502Z,2.25
2022-07-29T21:56:34.039Z,1.90
2022-07-29T21:59:03.239Z,1.85
2022-07-29T22:01:38.999Z,2.40
2022-07-29T22:04:09.306Z,2.10
2022-07-29T22:06:36.831Z,1.98
2022-07-29T22:09:04.623Z,2.08
2022-07-29T22:11:32.389Z,2.13
2022-07-29T22:14:00.121Z,2.65
2022-07-29T22:16:27.697Z,1.90
2022-07-29T22:18:55.475Z,2.13
2022-07-29T22:21:24.390Z,2.30
2022-07-29T22:23:51.917Z,2.40
2022-07-29T22:26:19.458Z,3.08
2022-07-29T22:28:46.951Z,2.47
2022-07-29T22:31:14.521Z,2.97
2022-07-29T22:33:42.170Z,2.90
2022-07-29T22:36:10.432Z,2.75
2022-07-29T22:38:39.322Z,3.70
2022-07-29T22:41:06.874Z,2.75
2022-07-29T22:43:35.680Z,2.95
2022-07-29T22:46:03.276Z,2.95
2022-07-29T22:48:31.218Z,2.97
2022-07-29T22:50:58.744Z,2.95
2022-07-29T22:53:26.284Z,2.95
2022-07-29T22:55:55.351Z,3.00
2022-07-29T22:58:22.844Z,3.83
2022-07-29T23:00:50.394Z,3.00
2022-07-29T23:03:17.972Z,3.80
2022-07-29T23:05:45.612Z,3.67
2022-07-29T23:08:13.159Z,3.90
2022-07-29T23:10:41.694Z,3.75
2022-07-29T23:13:10.921Z,3.30
2022-07-29T23:15:38.424Z,3.92
2022-07-29T23:18:06.027Z,4.00
2022-07-29T23:20:33.670Z,4.38
2022-07-29T23:23:01.228Z,4.47
2022-07-29T23:25:28.775Z,4.07
2022-07-29T23:27:56.359Z,4.07
2022-07-29T23:30:25.618Z,4.00
2022-07-29T23:32:53.242Z,3.65
2022-07-29T23:35:21.029Z,4.80
2022-07-29T23:37:48.774Z,4.18
2022-07-29T23:40:16.863Z,5.15
2022-07-29T23:42:44.618Z,4.55
2022-07-29T23:45:14.157Z,4.10
2022-07-29T23:47:43.112Z,3.95
2022-07-29T23:50:12.967Z,5.00
2022-07-29T23:52:41.426Z,5.00
2022-07-29T23:55:37.100Z,5.22
2022-07-29T23:57:57.257Z,4.78
